createdAt,value
2019-02-10T00:00:23.838Z,3.53
2019-02-10T00:02:53.984Z,2.97
2019-02-10T00:05:24.145Z,2.77
2019-02-10T00:07:54.219Z,2.77
2019-02-10T00:10:24.175Z,2.33
2019-02-10T00:13:11.979Z,2.33
2019-02-10T00:15:41.918Z,2.50
2019-02-10T00:18:11.922Z,2.13
2019-02-10T00:20:41.890Z,3.20
2019-02-10T00:23:11.842Z,2.17
2019-02-10T00:25:41.936Z,2.63
2019-02-10T00:28:11.964Z,2.67
2019-02-10T00:30:42.016Z,2.60
2019-02-10T00:33:11.971Z,2.37
2019-02-10T00:35:42.146Z,2.37
2019-02-10T00:38:12.128Z,2.70
2019-02-10T00:40:42.128Z,2.17
2019-02-10T00:43:12.539Z,3.17
2019-02-10T00:45:42.533Z,1.97
2019-02-10T00:48:12.588Z,2.63
2019-02-10T00:50:42.628Z,2.70
2019-02-10T00:53:12.641Z,2.73
2019-02-10T00:55:42.770Z,3.00
2019-02-10T00:58:12.810Z,2.90
2019-02-10T01:00:42.828Z,3.03
2019-02-10T01:03:12.873Z,2.53
2019-02-10T01:05:42.884Z,2.60
2019-02-10T01:08:13.431Z,2.10
2019-02-10T01:10:43.478Z,2.53
2019-02-10T01:13:13.489Z,2.53
2019-02-10T01:15:43.552Z,2.40
2019-02-10T01:18:13.530Z,2.97
2019-02-10T01:20:43.518Z,2.63
2019-02-10T01:23:13.556Z,2.43
2019-02-10T01:25:43.597Z,2.80
2019-02-10T01:28:13.675Z,2.80
2019-02-10T01:30:43.742Z,2.60
2019-02-10T01:33:13.842Z,2.63
2019-02-10T01:35:43.885Z,2.93
2019-02-10T01:38:13.950Z,1.93
2019-02-10T01:40:43.979Z,2.13
2019-02-10T01:43:14.977Z,2.70
2019-02-10T01:45:45.029Z,1.93
2019-02-10T01:48:15.034Z,2.27
2019-02-10T01:50:45.178Z,2.47
2019-02-10T01:53:15.269Z,3.00
2019-02-10T01:55:45.233Z,2.70
2019-02-10T01:58:15.294Z,3.03
2019-02-10T02:00:45.333Z,1.97
2019-02-10T02:03:17.243Z,2.30
2019-02-10T02:05:47.311Z,2.20
2019-02-10T02:08:17.297Z,2.67
2019-02-10T02:10:47.244Z,2.83
2019-02-10T02:13:17.262Z,2.20
2019-02-10T02:15:47.226Z,2.90
2019-02-10T02:18:17.202Z,2.63
2019-02-10T02:20:47.210Z,2.60
2019-02-10T02:23:17.262Z,3.20
2019-02-10T02:25:47.337Z,2.83
2019-02-10T02:28:17.302Z,2.13
2019-02-10T02:30:47.332Z,2.87
2019-02-10T02:33:17.478Z,2.67
2019-02-10T02:35:47.430Z,2.93
2019-02-10T02:38:17.528Z,1.87
2019-02-10T02:40:47.551Z,2.27
2019-02-10T02:43:17.567Z,2.00
2019-02-10T02:45:47.632Z,2.60
2019-02-10T02:48:17.629Z,2.23
2019-02-10T02:50:47.576Z,3.50
2019-02-10T02:53:17.643Z,2.70
2019-02-10T02:55:47.661Z,2.73
2019-02-10T02:58:17.689Z,2.10
2019-02-10T03:00:47.755Z,1.93
2019-02-10T03:03:17.749Z,2.70
2019-02-10T03:05:47.727Z,2.67
2019-02-10T03:08:17.837Z,3.33
2019-02-10T03:10:47.866Z,3.17
2019-02-10T03:13:17.942Z,2.60
2019-02-10T03:15:48.082Z,3.27
2019-02-10T03:18:18.438Z,2.30
2019-02-10T03:20:48.783Z,2.53
2019-02-10T03:23:18.757Z,2.80
2019-02-10T03:25:48.847Z,2.30
2019-02-10T03:28:18.818Z,2.20
2019-02-10T03:30:48.828Z,2.43
2019-02-10T03:33:18.948Z,3.27
2019-02-10T03:35:48.919Z,2.87
2019-02-10T03:38:18.939Z,3.62
2019-02-10T03:40:48.879Z,2.40
2019-02-10T03:43:18.910Z,2.37
2019-02-10T03:45:48.883Z,2.37
2019-02-10T03:48:18.949Z,2.30
2019-02-10T03:50:48.897Z,2.33
2019-02-10T03:53:18.934Z,2.07
2019-02-10T03:55:48.989Z,2.23
2019-02-10T03:58:19.021Z,2.53
2019-02-10T04:00:49.070Z,2.40
2019-02-10T04:03:19.056Z,2.70
2019-02-10T04:05:49.143Z,2.10
2019-02-10T04:08:19.129Z,3.40
2019-02-10T04:10:49.174Z,1.87
2019-02-10T04:13:19.178Z,1.60
2019-02-10T04:15:49.220Z,1.87
2019-02-10T04:18:19.307Z,2.43
2019-02-10T04:20:49.281Z,1.47
2019-02-10T04:23:19.261Z,2.07
2019-02-10T04:25:49.331Z,2.70
2019-02-10T04:28:19.341Z,2.00
2019-02-10T04:30:49.345Z,2.07
2019-02-10T04:33:19.323Z,2.77
2019-02-10T04:35:49.282Z,2.30
2019-02-10T04:38:19.369Z,2.10
2019-02-10T04:40:49.319Z,2.33
2019-02-10T04:43:19.304Z,2.30
2019-02-10T04:45:49.254Z,1.97
2019-02-10T04:48:19.269Z,2.03
2019-02-10T04:50:49.245Z,1.93
2019-02-10T04:53:19.294Z,2.20
2019-02-10T04:56:07.351Z,1.97
2019-02-10T04:58:37.323Z,2.03
2019-02-10T05:01:07.418Z,2.57
2019-02-10T05:03:37.435Z,1.30
2019-02-10T05:06:07.504Z,1.80
2019-02-10T05:08:37.474Z,2.53
2019-02-10T05:11:07.455Z,1.67
2019-02-10T05:13:37.409Z,1.50
2019-02-10T05:16:07.370Z,1.53
2019-02-10T05:18:37.350Z,2.03
2019-02-10T05:21:07.681Z,2.17
2019-02-10T05:23:37.703Z,1.90
2019-02-10T05:26:07.903Z,1.40
2019-02-10T05:28:37.901Z,1.67
2019-02-10T05:31:07.991Z,1.47
2019-02-10T05:33:37.952Z,1.63
2019-02-10T05:36:07.879Z,2.00
2019-02-10T05:38:37.913Z,2.03
2019-02-10T05:41:07.870Z,2.08
2019-02-10T05:43:37.830Z,2.07
2019-02-10T05:46:07.788Z,1.80
2019-02-10T05:48:37.760Z,1.70
2019-02-10T05:51:08.707Z,1.43
2019-02-10T05:53:38.783Z,2.00
2019-02-10T05:56:08.904Z,1.90
2019-02-10T05:58:38.919Z,2.07
2019-02-10T06:01:26.939Z,1.23
2019-02-10T06:03:57.251Z,1.70
2019-02-10T06:06:27.312Z,2.03
2019-02-10T06:08:57.360Z,1.90
2019-02-10T06:11:27.337Z,2.13
2019-02-10T06:13:57.590Z,1.80
2019-02-10T06:16:27.631Z,1.47
2019-02-10T06:18:57.586Z,1.50
2019-02-10T06:21:27.638Z,2.63
2019-02-10T06:23:57.585Z,2.27
2019-02-10T06:26:27.574Z,1.50
2019-02-10T06:28:57.595Z,2.03
2019-02-10T06:31:27.552Z,2.00
2019-02-10T06:33:57.581Z,1.87
2019-02-10T06:36:27.534Z,1.87
2019-02-10T06:38:57.503Z,1.77
2019-02-10T06:41:28.191Z,1.70
2019-02-10T06:43:58.565Z,1.60
2019-02-10T06:46:28.870Z,1.80
2019-02-10T06:48:58.820Z,1.67
2019-02-10T06:51:28.976Z,1.90
2019-02-10T06:53:59.033Z,1.60
2019-02-10T06:56:29.148Z,1.50
2019-02-10T06:58:59.533Z,1.70
2019-02-10T07:01:35.585Z,2.00
2019-02-10T07:04:16.092Z,2.00
2019-02-10T07:06:46.142Z,1.30
2019-02-10T07:09:16.226Z,1.90
2019-02-10T07:11:46.193Z,1.70
2019-02-10T07:14:18.944Z,1.57
2019-02-10T07:17:11.104Z,1.70
2019-02-10T07:20:06.292Z,1.53
2019-02-10T07:23:01.529Z,1.43
2019-02-10T07:25:45.303Z,1.67
2019-02-10T07:28:33.609Z,1.47
2019-02-10T07:31:04.473Z,1.47
2019-02-10T07:33:59.919Z,1.53
2019-02-10T07:36:49.280Z,1.70
2019-02-10T07:39:44.553Z,2.07
2019-02-10T07:42:33.736Z,1.43
2019-02-10T07:45:22.154Z,1.22
2019-02-10T07:48:14.050Z,1.30
2019-02-10T07:50:54.182Z,1.43
2019-02-10T07:53:37.517Z,1.43
2019-02-10T07:56:18.707Z,1.30
2019-02-10T07:58:53.686Z,1.60
2019-02-10T08:01:28.977Z,1.30
2019-02-10T08:04:11.495Z,2.20
2019-02-10T08:07:00.704Z,2.00
2019-02-10T08:09:34.804Z,1.70
2019-02-10T08:12:22.986Z,2.33
2019-02-10T08:15:04.909Z,1.90
2019-02-10T08:17:50.054Z,2.13
2019-02-10T08:20:45.570Z,2.40
2019-02-10T08:23:18.769Z,1.43
2019-02-10T08:26:10.953Z,1.40
2019-02-10T08:28:51.204Z,1.47
2019-02-10T08:31:29.281Z,1.67
2019-02-10T08:34:24.310Z,2.00
2019-02-10T08:37:09.060Z,1.87
2019-02-10T08:40:01.111Z,2.23
2019-02-10T08:42:49.186Z,2.30
2019-02-10T08:45:41.525Z,1.80
2019-02-10T08:48:29.570Z,2.00
2019-02-10T08:51:21.769Z,2.07
2019-02-10T08:53:51.763Z,2.43
2019-02-10T08:56:21.821Z,2.13
2019-02-10T08:58:51.871Z,3.00
2019-02-10T09:01:22.235Z,3.03
2019-02-10T09:03:52.161Z,2.23
2019-02-10T09:06:22.216Z,2.72
2019-02-10T09:08:52.177Z,2.80
2019-02-10T09:11:22.149Z,2.90
2019-02-10T09:13:53.081Z,3.77
2019-02-10T09:16:23.270Z,2.97
2019-02-10T09:18:53.239Z,3.10
2019-02-10T09:21:24.238Z,2.70
2019-02-10T09:23:54.268Z,2.70
2019-02-10T09:26:25.335Z,2.33
2019-02-10T09:28:55.338Z,2.80
2019-02-10T09:31:25.341Z,2.90
2019-02-10T09:33:55.310Z,2.67
2019-02-10T09:36:25.371Z,2.77
2019-02-10T09:38:55.358Z,2.60
2019-02-10T09:41:25.313Z,2.37
2019-02-10T09:43:55.348Z,2.63
2019-02-10T09:46:25.387Z,2.10
2019-02-10T09:48:55.415Z,2.80
2019-02-10T09:51:25.385Z,2.10
2019-02-10T09:53:55.430Z,3.00
2019-02-10T09:56:25.420Z,2.07
2019-02-10T09:58:55.458Z,2.03
2019-02-10T10:01:25.456Z,2.07
2019-02-10T10:03:55.630Z,1.57
2019-02-10T10:06:25.618Z,1.87
2019-02-10T10:08:55.935Z,1.70
2019-02-10T10:11:26.983Z,1.50
2019-02-10T10:13:57.065Z,1.77
2019-02-10T10:16:27.310Z,1.70
2019-02-10T10:18:57.635Z,1.93
2019-02-10T10:21:28.020Z,1.73
2019-02-10T10:23:58.365Z,1.40
2019-02-10T10:26:29.448Z,1.83
2019-02-10T10:28:59.431Z,1.20
2019-02-10T10:31:29.381Z,1.37
2019-02-10T10:33:59.319Z,2.07
2019-02-10T10:36:29.286Z,1.60
2019-02-10T10:38:59.250Z,1.30
2019-02-10T10:41:30.262Z,1.30
2019-02-10T10:44:00.437Z,1.30
2019-02-10T10:46:30.474Z,1.50
2019-02-10T10:49:00.749Z,1.40
2019-02-10T10:51:31.049Z,1.30
2019-02-10T10:54:01.097Z,1.60
2019-02-10T10:56:31.234Z,1.67
2019-02-10T10:59:01.547Z,1.27
2019-02-10T11:01:31.571Z,1.87
2019-02-10T11:04:01.607Z,1.70
2019-02-10T11:06:31.551Z,1.60
2019-02-10T11:09:01.574Z,1.63
2019-02-10T11:11:33.160Z,1.70
2019-02-10T11:14:03.984Z,1.73
2019-02-10T11:16:33.905Z,1.87
2019-02-10T11:19:04.227Z,2.30
2019-02-10T11:21:34.267Z,2.10
2019-02-10T11:24:04.332Z,1.90
2019-02-10T11:26:34.369Z,1.98
2019-02-10T11:29:04.417Z,2.30
2019-02-10T11:31:34.396Z,1.80
2019-02-10T11:34:04.444Z,1.93
2019-02-10T11:36:34.447Z,2.00
2019-02-10T11:39:05.144Z,1.90
2019-02-10T11:41:35.273Z,2.00
2019-02-10T11:44:05.285Z,2.53
2019-02-10T11:46:35.254Z,1.53
2019-02-10T11:49:05.344Z,1.60
2019-02-10T11:51:35.306Z,1.50
2019-02-10T11:54:05.495Z,1.40
2019-02-10T11:56:35.456Z,1.53
2019-02-10T11:59:05.524Z,1.50
2019-02-10T12:01:35.829Z,1.60
2019-02-10T12:04:06.048Z,1.40
2019-02-10T12:06:36.047Z,1.80
2019-02-10T12:09:06.191Z,2.33
2019-02-10T12:11:36.293Z,2.53
2019-02-10T12:14:06.345Z,1.73
2019-02-10T12:16:36.322Z,1.60
2019-02-10T12:19:06.352Z,1.97
2019-02-10T12:21:36.285Z,1.90
2019-02-10T12:24:06.303Z,2.37
2019-02-10T12:26:36.644Z,2.07
2019-02-10T12:29:06.765Z,2.33
2019-02-10T12:31:37.109Z,1.80
2019-02-10T12:34:07.163Z,2.00
2019-02-10T12:36:37.409Z,2.03
2019-02-10T12:39:08.004Z,3.10
2019-02-10T12:41:37.971Z,2.63
2019-02-10T12:44:08.140Z,2.20
2019-02-10T12:46:38.113Z,2.33
2019-02-10T12:49:08.197Z,2.03
2019-02-10T12:51:38.184Z,2.33
2019-02-10T12:54:08.319Z,1.90
2019-02-10T12:56:39.007Z,2.20
2019-02-10T12:59:09.109Z,2.23
2019-02-10T13:01:39.138Z,1.90
2019-02-10T13:04:09.192Z,2.43
2019-02-10T13:06:39.309Z,2.17
2019-02-10T13:09:11.262Z,2.47
2019-02-10T13:11:41.310Z,2.27
2019-02-10T13:14:14.266Z,1.83
2019-02-10T13:16:44.209Z,2.20
2019-02-10T13:19:14.287Z,2.47
2019-02-10T13:21:44.344Z,2.70
2019-02-10T13:24:14.299Z,2.37
2019-02-10T13:26:44.320Z,3.10
2019-02-10T13:29:14.314Z,2.43
2019-02-10T13:31:44.337Z,3.00
2019-02-10T13:34:14.352Z,2.50
2019-02-10T13:36:45.305Z,1.87
2019-02-10T13:39:16.259Z,2.20
2019-02-10T13:41:45.615Z,2.50
2019-02-10T13:44:15.585Z,2.03
2019-02-10T13:46:45.633Z,2.37
2019-02-10T13:49:15.656Z,2.20
2019-02-10T13:51:45.673Z,2.03
2019-02-10T13:54:15.639Z,1.50
2019-02-10T13:56:45.607Z,2.07
2019-02-10T13:59:15.606Z,1.70
2019-02-10T14:01:45.583Z,1.60
2019-02-10T14:04:15.609Z,1.50
2019-02-10T14:06:45.592Z,1.80
2019-02-10T14:09:15.582Z,1.27
2019-02-10T14:11:45.544Z,1.70
2019-02-10T14:14:15.533Z,1.23
2019-02-10T14:16:45.840Z,1.57
2019-02-10T14:19:16.162Z,1.10
2019-02-10T14:21:46.169Z,1.00
2019-02-10T14:24:16.182Z,1.20
2019-02-10T14:26:46.205Z,0.83
2019-02-10T14:29:16.218Z,1.20
2019-02-10T14:31:46.367Z,0.60
2019-02-10T14:34:16.514Z,0.60
2019-02-10T14:36:46.540Z,0.90
2019-02-10T14:39:16.625Z,0.77
2019-02-10T14:41:47.265Z,0.90
2019-02-10T14:44:17.217Z,0.60
2019-02-10T14:46:47.244Z,0.60
2019-02-10T14:49:17.292Z,0.40
2019-02-10T14:51:47.622Z,0.50
2019-02-10T14:54:17.693Z,0.70
2019-02-10T14:56:47.933Z,0.30
2019-02-10T14:59:19.346Z,0.30
2019-02-10T15:01:49.616Z,0.37
2019-02-10T15:04:21.085Z,0.37
2019-02-10T15:06:51.064Z,0.40
2019-02-10T15:09:21.029Z,0.53
2019-02-10T15:11:51.048Z,0.40
2019-02-10T15:14:21.077Z,0.60
2019-02-10T15:16:51.010Z,0.30
2019-02-10T15:19:21.022Z,0.60
2019-02-10T15:21:51.004Z,0.50
2019-02-10T15:24:21.057Z,0.37
2019-02-10T15:26:51.016Z,0.50
2019-02-10T15:29:21.006Z,0.60
2019-02-10T15:31:51.042Z,0.47
2019-02-10T15:34:21.344Z,1.07
2019-02-10T15:36:51.280Z,0.50
2019-02-10T15:39:21.234Z,0.30
2019-02-10T15:41:51.253Z,0.60
2019-02-10T15:44:21.207Z,0.40
2019-02-10T15:46:51.561Z,0.40
2019-02-10T15:49:21.612Z,0.30
2019-02-10T15:51:51.676Z,0.40
2019-02-10T15:54:21.917Z,0.40
2019-02-10T15:56:51.915Z,0.70
2019-02-10T15:59:21.859Z,0.60
2019-02-10T16:01:51.927Z,1.70
2019-02-10T16:04:22.225Z,0.30
2019-02-10T16:06:52.653Z,0.40
2019-02-10T16:09:22.598Z,0.40
2019-02-10T16:11:52.533Z,0.60
2019-02-10T16:14:22.575Z,0.40
2019-02-10T16:16:53.040Z,0.50
2019-02-10T16:19:22.991Z,0.43
2019-02-10T16:21:53.072Z,0.47
2019-02-10T16:24:23.138Z,0.30
2019-02-10T16:26:53.123Z,0.33
2019-02-10T16:29:23.126Z,0.40
2019-02-10T16:31:53.117Z,0.40
2019-02-10T16:34:23.220Z,0.40
2019-02-10T16:36:53.197Z,0.30
2019-02-10T16:39:23.277Z,0.60
2019-02-10T16:41:53.230Z,0.40
2019-02-10T16:44:23.222Z,0.53
2019-02-10T16:46:53.191Z,0.70
2019-02-10T16:49:23.190Z,0.43
2019-02-10T16:51:53.259Z,0.50
2019-02-10T16:54:23.801Z,0.50
2019-02-10T16:56:53.815Z,0.20
2019-02-10T16:59:23.774Z,0.43
2019-02-10T17:01:53.748Z,0.30
2019-02-10T17:04:23.696Z,0.40
2019-02-10T17:06:53.687Z,0.80
2019-02-10T17:09:23.700Z,0.43
2019-02-10T17:11:53.736Z,0.53
2019-02-10T17:14:23.691Z,0.77
2019-02-10T17:16:53.674Z,0.50
2019-02-10T17:19:23.611Z,0.40
2019-02-10T17:21:53.689Z,0.40
2019-02-10T17:24:24.834Z,0.40
2019-02-10T17:26:54.871Z,3.00
2019-02-10T17:29:24.897Z,0.63
2019-02-10T17:31:54.841Z,0.63
2019-02-10T17:34:24.987Z,0.60
2019-02-10T17:36:55.292Z,0.30
2019-02-10T17:39:25.718Z,0.50
2019-02-10T17:41:55.929Z,0.70
2019-02-10T17:44:26.228Z,0.30
2019-02-10T17:46:56.279Z,0.50
2019-02-10T17:49:26.275Z,2.63
2019-02-10T17:51:56.361Z,0.63
2019-02-10T17:54:26.397Z,0.70
2019-02-10T17:56:56.703Z,0.40
2019-02-10T17:59:26.713Z,0.60
2019-02-10T18:01:56.681Z,0.30
2019-02-10T18:04:27.786Z,0.80
2019-02-10T18:06:57.970Z,0.40
2019-02-10T18:09:27.987Z,0.43
2019-02-10T18:11:57.961Z,0.50
2019-02-10T18:14:52.935Z,0.40
2019-02-10T18:17:42.215Z,0.43
2019-02-10T18:20:25.160Z,0.47
2019-02-10T18:23:10.760Z,0.40
2019-02-10T18:26:08.624Z,0.30
2019-02-10T18:29:04.000Z,0.40
2019-02-10T18:31:56.937Z,2.27
2019-02-10T18:34:39.365Z,1.00
2019-02-10T18:37:25.645Z,0.60
2019-02-10T18:40:20.986Z,0.40
2019-02-10T18:43:09.336Z,0.40
2019-02-10T18:46:01.948Z,0.40
2019-02-10T18:48:40.991Z,0.60
2019-02-10T18:51:33.440Z,0.57
2019-02-10T18:54:20.475Z,0.30
2019-02-10T18:57:08.640Z,0.30
2019-02-10T18:59:57.086Z,0.40
2019-02-10T19:02:38.974Z,0.40
2019-02-10T19:05:44.333Z,4.10
2019-02-10T19:08:32.061Z,0.50
2019-02-10T19:11:19.869Z,0.70
2019-02-10T19:14:13.059Z,0.50
2019-02-10T19:17:00.914Z,0.47
2019-02-10T19:19:49.032Z,0.60
2019-02-10T19:22:47.318Z,0.67
2019-02-10T19:25:48.601Z,0.47
2019-02-10T19:28:38.880Z,0.63
2019-02-10T19:31:31.443Z,0.80
2019-02-10T19:34:28.670Z,0.40
2019-02-10T19:37:23.913Z,0.70
2019-02-10T19:40:22.015Z,0.47
2019-02-10T19:43:01.360Z,0.75
2019-02-10T19:45:41.450Z,0.43
2019-02-10T19:48:45.714Z,0.43
2019-02-10T19:51:24.840Z,0.40
2019-02-10T19:54:06.011Z,0.17
2019-02-10T19:56:58.162Z,0.47
2019-02-10T19:59:38.635Z,0.43
2019-02-10T20:02:37.387Z,0.40
2019-02-10T20:05:20.621Z,0.93
2019-02-10T20:07:57.781Z,0.57
2019-02-10T20:10:46.953Z,0.60
2019-02-10T20:13:26.593Z,0.83
2019-02-10T20:16:24.822Z,0.57
2019-02-10T20:19:19.821Z,0.50
2019-02-10T20:22:18.199Z,0.70
2019-02-10T20:25:05.856Z,0.73
2019-02-10T20:27:53.727Z,0.77
2019-02-10T20:30:46.395Z,0.50
2019-02-10T20:33:35.542Z,0.53
2019-02-10T20:36:29.867Z,0.60
2019-02-10T20:39:09.678Z,0.90
2019-02-10T20:41:50.651Z,0.97
2019-02-10T20:44:29.042Z,0.97
2019-02-10T20:47:18.279Z,0.93
2019-02-10T20:50:19.836Z,0.70
2019-02-10T20:53:09.073Z,1.00
2019-02-10T20:56:01.370Z,0.87
2019-02-10T20:58:53.872Z,1.00
2019-02-10T21:01:36.237Z,1.50
2019-02-10T21:04:31.715Z,1.20
2019-02-10T21:07:23.914Z,1.97
2019-02-10T21:10:12.005Z,1.87
2019-02-10T21:12:57.790Z,1.93
2019-02-10T21:15:45.912Z,1.77
2019-02-10T21:18:44.243Z,2.77
2019-02-10T21:21:42.397Z,3.47
2019-02-10T21:24:28.665Z,2.67
2019-02-10T21:27:26.898Z,2.50
2019-02-10T21:30:13.821Z,4.23
2019-02-10T21:33:01.726Z,2.90
2019-02-10T21:35:56.544Z,2.73
2019-02-10T21:38:41.872Z,3.87
2019-02-10T21:41:22.019Z,3.10
2019-02-10T21:43:56.961Z,2.73
2019-02-10T21:46:38.599Z,2.93
2019-02-10T21:49:13.580Z,2.30
2019-02-10T21:51:43.871Z,2.83
2019-02-10T21:54:13.890Z,2.53
2019-02-10T21:56:43.874Z,3.23
2019-02-10T21:59:14.019Z,2.20
2019-02-10T22:01:44.072Z,3.07
2019-02-10T22:04:14.100Z,2.83
2019-02-10T22:06:44.158Z,3.02
2019-02-10T22:09:14.101Z,3.50
2019-02-10T22:11:44.067Z,3.30
2019-02-10T22:14:14.607Z,2.93
2019-02-10T22:16:44.588Z,3.40
2019-02-10T22:19:14.633Z,2.73
2019-02-10T22:21:44.607Z,2.90
2019-02-10T22:24:14.577Z,2.30
2019-02-10T22:26:44.617Z,2.80
2019-02-10T22:29:14.616Z,2.17
2019-02-10T22:31:44.742Z,2.27
2019-02-10T22:34:14.707Z,2.83
2019-02-10T22:36:44.708Z,2.47
2019-02-10T22:39:15.002Z,2.33
2019-02-10T22:41:45.025Z,2.13
2019-02-10T22:44:15.018Z,2.53
2019-02-10T22:46:45.126Z,3.30
2019-02-10T22:49:15.129Z,2.37
2019-02-10T22:51:45.140Z,1.80
2019-02-10T22:54:15.115Z,1.93
2019-02-10T22:56:45.108Z,1.93
2019-02-10T22:59:15.073Z,2.10
2019-02-10T23:01:45.127Z,2.23
2019-02-10T23:04:16.355Z,1.50
2019-02-10T23:06:46.381Z,2.03
2019-02-10T23:09:20.780Z,2.37
2019-02-10T23:11:50.858Z,2.30
2019-02-10T23:14:20.835Z,1.80
2019-02-10T23:16:50.813Z,1.90
2019-02-10T23:19:20.812Z,1.50
2019-02-10T23:21:50.844Z,1.93
2019-02-10T23:24:20.805Z,2.00
2019-02-10T23:26:50.791Z,1.67
2019-02-10T23:29:20.916Z,1.70
2019-02-10T23:31:50.938Z,2.00
2019-02-10T23:34:20.881Z,2.03
2019-02-10T23:36:51.088Z,1.80
2019-02-10T23:39:21.186Z,1.85
2019-02-10T23:41:51.401Z,2.83
2019-02-10T23:44:21.375Z,2.20
2019-02-10T23:46:51.339Z,1.53
2019-02-10T23:49:21.325Z,1.70
2019-02-10T23:51:51.329Z,1.93
2019-02-10T23:54:21.339Z,2.27
2019-02-10T23:56:51.366Z,2.10
2019-02-10T23:59:21.369Z,1.73
